createdAt,value
2024-03-11T00:00:20.843Z,62.84
2024-03-11T00:01:20.969Z,60.46
2024-03-11T00:02:21.057Z,60.54
2024-03-11T00:03:21.108Z,61.50
2024-03-11T00:04:21.190Z,60.05
2024-03-11T00:05:21.279Z,61.38
2024-03-11T00:55:49.305Z,61.79
2024-03-11T00:56:21.668Z,64.76
2024-03-11T00:57:21.603Z,90.70
2024-03-11T00:58:21.603Z,131.28
2024-03-11T00:59:21.641Z,180.80
2024-03-11T01:00:21.610Z,234.25
2024-03-11T01:01:21.611Z,191.94
2024-03-11T01:02:21.653Z,176.77
2024-03-11T01:03:21.610Z,162.94
2024-03-11T01:04:21.626Z,151.04
2024-03-11T01:05:21.653Z,142.51
2024-03-11T01:06:21.625Z,134.59
2024-03-11T01:07:27.882Z,126.54
2024-03-11T01:08:21.678Z,121.74
2024-03-11T01:09:21.631Z,117.30
2024-03-11T01:10:21.632Z,111.65
2024-03-11T01:11:21.765Z,107.50
2024-03-11T01:12:21.678Z,104.49
2024-03-11T01:13:21.638Z,100.75
2024-03-11T01:14:21.658Z,96.69
2024-03-11T01:15:21.634Z,91.96
2024-03-11T01:16:21.641Z,91.11
2024-03-11T01:17:21.681Z,87.00
2024-03-11T01:18:21.695Z,86.60
2024-03-11T01:19:23.491Z,84.62
2024-03-11T01:20:21.727Z,84.30
2024-03-11T01:21:21.641Z,83.97
2024-03-11T01:22:21.641Z,79.61
2024-03-11T01:23:21.742Z,78.79
2024-03-11T01:24:21.652Z,79.83
2024-03-11T01:25:21.649Z,77.13
2024-03-11T01:26:21.671Z,75.53
2024-03-11T01:27:21.708Z,74.96
2024-03-11T01:28:21.653Z,73.54
2024-03-11T01:29:21.670Z,72.78
2024-03-11T01:30:21.658Z,71.15
2024-03-11T01:31:21.644Z,71.50
2024-03-11T01:32:21.740Z,69.05
2024-03-11T01:33:21.731Z,70.57
2024-03-11T01:34:21.695Z,67.47
2024-03-11T01:35:21.733Z,66.88
2024-03-11T01:36:21.660Z,68.28
2024-03-11T01:37:21.652Z,66.40
2024-03-11T01:38:21.688Z,64.63
2024-03-11T01:39:21.654Z,65.49
2024-03-11T01:40:21.676Z,65.59
2024-03-11T01:41:21.713Z,64.52
2024-03-11T01:42:21.652Z,63.77
2024-03-11T01:43:21.904Z,63.56
2024-03-11T01:44:21.682Z,64.12
2024-03-11T01:45:21.658Z,63.46
2024-03-11T01:46:21.670Z,63.91
2024-03-11T01:47:21.686Z,63.38
2024-03-11T01:48:21.706Z,61.96
2024-03-11T01:49:21.674Z,62.70
2024-03-11T01:50:21.724Z,61.79
2024-03-11T01:51:21.696Z,63.15
2024-03-11T01:52:21.764Z,62.05
2024-03-11T01:53:21.901Z,61.28
2024-03-11T01:54:21.952Z,60.29
2024-03-11T01:55:22.056Z,60.99
2024-03-11T01:56:22.169Z,61.84
2024-03-11T01:57:22.241Z,57.68
2024-03-11T01:58:22.339Z,61.41
2024-03-11T01:59:22.500Z,59.77
2024-03-11T02:00:22.534Z,60.59
2024-03-11T02:01:22.653Z,60.08
2024-03-11T02:02:22.739Z,60.71
2024-03-11T02:03:22.803Z,60.74
2024-03-11T02:04:22.906Z,61.29
2024-03-11T02:05:23.039Z,60.11
2024-03-11T02:06:23.107Z,60.16
2024-03-11T02:07:23.202Z,60.60
2024-03-11T02:08:23.342Z,59.21
2024-03-11T02:09:23.396Z,60.20
2024-03-11T02:10:23.511Z,58.88
2024-03-11T02:11:23.637Z,59.39
2024-03-11T02:12:23.681Z,60.12
2024-03-11T02:13:23.774Z,59.96
2024-03-11T02:14:23.921Z,59.33
2024-03-11T02:15:23.992Z,58.24
2024-03-11T02:16:24.135Z,60.30
2024-03-11T02:17:24.221Z,60.00
2024-03-11T02:18:24.346Z,60.13
2024-03-11T02:19:24.364Z,59.75
2024-03-11T02:20:24.691Z,60.46
2024-03-11T02:21:24.532Z,57.89
2024-03-11T02:22:24.624Z,57.72
2024-03-11T02:23:24.810Z,59.38
2024-03-11T02:24:24.832Z,59.10
2024-03-11T02:25:24.917Z,56.96
2024-03-11T02:26:25.083Z,58.83
2024-03-11T02:27:25.114Z,58.08
2024-03-11T02:28:25.208Z,59.07
2024-03-11T02:29:25.344Z,57.52
2024-03-11T02:30:25.433Z,58.02
2024-03-11T02:31:25.508Z,58.44
2024-03-11T02:32:25.700Z,57.14
2024-03-11T02:33:25.731Z,58.14
2024-03-11T02:34:25.768Z,58.01
2024-03-11T02:35:25.893Z,58.71
2024-03-11T02:36:25.961Z,57.90
2024-03-11T02:37:26.058Z,58.56
2024-03-11T02:38:26.085Z,58.35
2024-03-11T02:39:26.109Z,57.59
2024-03-11T02:40:26.136Z,57.69
2024-03-11T02:41:26.232Z,56.91
2024-03-11T02:42:26.165Z,59.11
2024-03-11T02:43:26.181Z,58.31
2024-03-11T02:44:26.299Z,59.12
2024-03-11T02:45:26.348Z,58.66
2024-03-11T02:46:26.476Z,57.70
2024-03-11T02:47:26.602Z,58.03
2024-03-11T02:48:26.670Z,59.02
2024-03-11T02:49:26.725Z,59.27
2024-03-11T02:50:26.825Z,58.68
2024-03-11T02:51:26.945Z,58.66
2024-03-11T02:52:27.022Z,59.32
2024-03-11T02:53:27.162Z,59.78
2024-03-11T02:54:27.207Z,59.98
2024-03-11T02:55:27.290Z,59.80
2024-03-11T02:56:27.462Z,59.96
2024-03-11T02:57:27.482Z,59.89
2024-03-11T02:58:27.580Z,58.75
2024-03-11T02:59:27.733Z,59.16
2024-03-11T03:00:27.767Z,58.09
2024-03-11T03:01:27.869Z,59.36
2024-03-11T03:02:28.054Z,58.80
2024-03-11T03:03:28.107Z,59.61
2024-03-11T03:04:28.156Z,57.78
2024-03-11T03:05:28.317Z,58.61
2024-03-11T03:06:28.337Z,58.91
2024-03-11T03:07:28.421Z,56.65
2024-03-11T03:08:28.553Z,59.11
2024-03-11T03:09:28.622Z,58.79
2024-03-11T03:10:28.723Z,59.02
2024-03-11T03:11:28.895Z,58.92
2024-03-11T03:12:28.909Z,57.17
2024-03-11T03:13:28.985Z,59.71
2024-03-11T03:14:29.115Z,60.00
2024-03-11T03:15:29.201Z,59.03
2024-03-11T03:16:29.266Z,59.50
2024-03-11T03:17:29.466Z,60.49
2024-03-11T03:18:29.523Z,59.96
2024-03-11T03:19:29.573Z,60.20
2024-03-11T03:20:29.676Z,59.76
2024-03-11T03:21:29.743Z,60.24
2024-03-11T03:22:29.833Z,58.76
2024-03-11T03:23:29.981Z,59.76
2024-03-11T03:24:30.029Z,61.57
2024-03-11T03:25:30.120Z,59.46
2024-03-11T03:26:30.245Z,59.34
2024-03-11T03:27:30.316Z,60.81
2024-03-11T03:28:30.421Z,59.51
2024-03-11T03:29:30.557Z,60.48
2024-03-11T03:30:30.621Z,58.53
2024-03-11T03:31:30.706Z,60.61
2024-03-11T03:32:30.923Z,57.24
2024-03-11T03:33:30.945Z,59.21
2024-03-11T03:34:30.993Z,60.75
2024-03-11T03:35:31.143Z,60.62
2024-03-11T03:36:31.196Z,58.11
2024-03-11T03:37:31.344Z,60.31
2024-03-11T03:38:31.425Z,60.95
2024-03-11T03:39:31.481Z,61.41
2024-03-11T03:40:31.573Z,58.72
2024-03-11T03:41:31.716Z,59.42
2024-03-11T03:42:31.761Z,60.16
2024-03-11T03:43:31.863Z,60.38
2024-03-11T03:44:32.013Z,60.38
2024-03-11T03:45:32.056Z,60.49
2024-03-11T03:46:32.154Z,56.34
2024-03-11T03:47:32.486Z,59.27
2024-03-11T03:48:32.393Z,60.33
2024-03-11T03:49:32.476Z,60.01
2024-03-11T03:50:32.593Z,59.31
2024-03-11T03:51:32.687Z,59.83
2024-03-11T03:52:32.727Z,59.42
2024-03-11T03:53:32.839Z,60.60
2024-03-11T03:54:32.959Z,61.23
2024-03-11T03:55:33.044Z,59.00
2024-03-11T03:56:33.161Z,60.83
2024-03-11T03:57:33.216Z,61.02
2024-03-11T03:58:35.800Z,61.82
2024-03-11T03:59:33.405Z,57.79
2024-03-11T04:00:33.299Z,62.05
2024-03-11T04:01:33.338Z,60.53
2024-03-11T04:02:33.354Z,59.58
2024-03-11T04:03:33.303Z,61.14
2024-03-11T04:04:33.301Z,60.06
2024-03-11T04:05:33.373Z,61.25
2024-03-11T04:06:33.303Z,59.63
2024-03-11T04:07:33.327Z,60.25
2024-03-11T04:08:33.415Z,60.87
2024-03-11T04:09:33.304Z,61.49
2024-03-11T04:10:33.302Z,60.67
2024-03-11T04:11:33.441Z,57.39
2024-03-11T04:12:33.311Z,61.64
2024-03-11T04:13:33.304Z,61.74
2024-03-11T04:14:33.365Z,60.64
2024-03-11T04:15:33.306Z,60.06
2024-03-11T04:16:33.315Z,60.58
2024-03-11T04:17:33.428Z,58.51
2024-03-11T04:18:33.419Z,58.77
2024-03-11T04:19:33.312Z,58.55
2024-03-11T04:20:33.383Z,60.79
2024-03-11T04:21:33.344Z,61.72
2024-03-11T04:22:33.308Z,60.16
2024-03-11T04:23:33.392Z,59.63
2024-03-11T04:24:33.343Z,61.06
2024-03-11T04:25:33.401Z,60.05
2024-03-11T04:26:33.353Z,60.41
2024-03-11T04:27:33.358Z,58.90
2024-03-11T04:28:33.343Z,58.84
2024-03-11T04:29:33.364Z,61.29
2024-03-11T04:30:33.400Z,59.06
2024-03-11T04:31:33.358Z,59.05
2024-03-11T04:32:33.613Z,61.80
2024-03-11T04:33:33.466Z,61.46
2024-03-11T04:34:33.446Z,61.19
2024-03-11T04:35:33.705Z,61.88
2024-03-11T04:36:33.634Z,59.92
2024-03-11T04:37:33.746Z,61.13
2024-03-11T04:38:33.829Z,60.33
2024-03-11T04:39:33.999Z,59.70
2024-03-11T04:40:34.008Z,63.71
2024-03-11T04:41:34.185Z,61.14
2024-03-11T04:42:34.206Z,62.50
2024-03-11T04:43:34.322Z,60.87
2024-03-11T04:44:34.492Z,62.52
2024-03-11T04:45:34.481Z,64.13
2024-03-11T04:46:34.574Z,61.54
2024-03-11T04:47:41.898Z,50.00
2024-03-11T04:48:42.892Z,50.00
2024-03-11T04:49:42.828Z,50.00
2024-03-11T04:50:44.095Z,50.00
2024-03-11T04:51:42.829Z,50.00
2024-03-11T04:52:42.850Z,53.20
2024-03-11T04:53:42.874Z,50.73
2024-03-11T04:54:42.845Z,50.57
2024-03-11T04:55:42.822Z,52.82
2024-03-11T04:56:42.883Z,52.77
2024-03-11T04:57:42.842Z,51.85
2024-03-11T04:58:42.846Z,52.57
2024-03-11T04:59:42.973Z,53.89
2024-03-11T05:00:42.874Z,55.53
2024-03-11T05:01:42.844Z,51.14
2024-03-11T05:02:42.937Z,54.69
2024-03-11T05:03:42.824Z,54.42
2024-03-11T05:04:42.832Z,50.25
2024-03-11T05:05:42.895Z,54.49
2024-03-11T05:06:42.832Z,52.12
2024-03-11T05:07:42.841Z,53.10
2024-03-11T05:08:42.906Z,54.82
2024-03-11T05:09:42.837Z,51.07
2024-03-11T05:10:42.872Z,55.91
2024-03-11T05:11:42.970Z,53.79
2024-03-11T05:12:42.838Z,53.53
2024-03-11T05:13:42.846Z,54.63
2024-03-11T05:14:42.975Z,54.26
2024-03-11T05:15:42.853Z,52.91
2024-03-11T05:16:42.851Z,53.61
2024-03-11T05:17:45.635Z,51.26
2024-03-11T05:18:42.898Z,51.31
2024-03-11T05:19:42.858Z,51.67
2024-03-11T05:20:42.858Z,52.27
2024-03-11T05:21:42.870Z,51.92
2024-03-11T05:22:42.869Z,53.29
2024-03-11T05:23:42.878Z,53.10
2024-03-11T05:24:42.880Z,55.54
2024-03-11T05:25:42.863Z,54.03
2024-03-11T05:26:42.942Z,55.40
2024-03-11T05:27:42.908Z,55.32
2024-03-11T05:28:42.870Z,53.53
2024-03-11T05:29:42.965Z,55.23
2024-03-11T05:30:42.898Z,54.54
2024-03-11T05:31:42.920Z,51.44
2024-03-11T05:32:43.118Z,55.26
2024-03-11T05:33:42.939Z,55.73
2024-03-11T05:34:42.877Z,53.51
2024-03-11T05:35:42.966Z,53.91
2024-03-11T05:36:42.921Z,52.43
2024-03-11T05:37:42.921Z,55.15
2024-03-11T05:38:43.015Z,55.91
2024-03-11T05:39:42.919Z,55.36
2024-03-11T05:40:42.986Z,52.26
2024-03-11T05:41:43.052Z,56.81
2024-03-11T05:42:43.372Z,54.56
2024-03-11T05:43:42.971Z,55.02
2024-03-11T05:44:43.070Z,53.16
2024-03-11T05:45:43.068Z,52.66
2024-03-11T05:46:43.132Z,53.28
2024-03-11T05:47:43.651Z,54.04
2024-03-11T05:48:43.286Z,52.98
2024-03-11T05:49:43.287Z,53.57
2024-03-11T05:50:43.367Z,54.29
2024-03-11T05:51:43.390Z,55.41
2024-03-11T05:52:43.431Z,52.35
2024-03-11T05:53:43.528Z,55.39
2024-03-11T05:54:43.544Z,56.41
2024-03-11T05:55:43.592Z,54.01
2024-03-11T05:56:43.733Z,55.03
2024-03-11T05:57:43.701Z,55.96
2024-03-11T05:58:43.779Z,55.05
2024-03-11T05:59:43.856Z,54.57
2024-03-11T06:00:43.854Z,54.28
2024-03-11T06:01:43.882Z,54.45
2024-03-11T06:02:43.945Z,54.75
2024-03-11T06:03:43.999Z,53.04
2024-03-11T06:04:44.065Z,54.33
2024-03-11T06:05:44.154Z,55.45
2024-03-11T06:06:44.220Z,56.11
2024-03-11T06:07:44.454Z,54.11
2024-03-11T06:08:44.437Z,55.58
2024-03-11T06:09:44.435Z,55.09
2024-03-11T06:10:44.528Z,55.20
2024-03-11T06:11:44.707Z,57.50
2024-03-11T06:12:44.969Z,54.83
2024-03-11T06:13:44.737Z,53.34
2024-03-11T06:14:44.891Z,56.28
2024-03-11T06:15:44.893Z,55.88
2024-03-11T06:16:44.950Z,56.19
2024-03-11T06:17:45.120Z,52.16
2024-03-11T06:18:45.196Z,50.86
2024-03-11T06:19:45.184Z,52.31
2024-03-11T06:20:45.255Z,51.76
2024-03-11T06:21:45.334Z,51.13
2024-03-11T06:22:45.397Z,50.00
2024-03-11T06:23:45.525Z,50.25
2024-03-11T06:24:45.551Z,50.98
2024-03-11T06:25:45.657Z,51.07
2024-03-11T06:26:45.780Z,52.33
2024-03-11T06:27:45.790Z,51.22
2024-03-11T06:28:48.969Z,54.07
2024-03-11T06:29:45.909Z,50.94
2024-03-11T06:30:45.872Z,49.00
2024-03-11T06:31:45.848Z,51.16
2024-03-11T06:32:46.115Z,49.47
2024-03-11T06:33:45.899Z,50.48
2024-03-11T06:34:45.891Z,52.09
2024-03-11T06:35:46.062Z,50.00
2024-03-11T06:36:45.912Z,53.60
2024-03-11T06:37:45.981Z,55.15
2024-03-11T06:38:45.945Z,53.48
2024-03-11T06:39:46.040Z,51.72
2024-03-11T06:40:47.012Z,52.49
2024-03-11T06:41:46.296Z,55.48
2024-03-11T06:42:46.146Z,55.89
2024-03-11T06:43:46.481Z,56.90
2024-03-11T06:44:46.275Z,58.54
2024-03-11T06:45:46.283Z,58.60
2024-03-11T06:46:46.409Z,60.62
2024-03-11T06:47:46.481Z,60.88
2024-03-11T06:48:46.638Z,63.42
2024-03-11T06:49:46.539Z,65.73
2024-03-11T06:50:46.621Z,67.32
2024-03-11T06:51:46.701Z,62.80
2024-03-11T06:52:46.918Z,64.73
2024-03-11T06:53:46.861Z,67.91
2024-03-11T06:54:46.936Z,65.65
2024-03-11T06:55:47.029Z,66.03
2024-03-11T06:56:47.192Z,68.87
2024-03-11T06:57:47.518Z,66.50
2024-03-11T06:58:47.687Z,68.80
2024-03-11T06:59:47.426Z,69.40
2024-03-11T07:00:48.473Z,69.51
2024-03-11T07:01:47.518Z,67.87
2024-03-11T07:02:47.460Z,67.93
2024-03-11T07:03:47.530Z,70.67
2024-03-11T07:04:47.672Z,72.64
2024-03-11T07:05:47.604Z,69.33
2024-03-11T07:06:47.610Z,71.11
2024-03-11T07:07:48.090Z,68.99
2024-03-11T07:08:47.688Z,70.57
2024-03-11T07:09:48.003Z,70.72
2024-03-11T07:10:47.813Z,71.07
2024-03-11T07:11:47.935Z,70.23
2024-03-11T07:12:47.903Z,69.76
2024-03-11T07:13:47.952Z,70.00
2024-03-11T07:14:47.968Z,70.54
2024-03-11T07:15:48.046Z,70.85
2024-03-11T07:16:48.159Z,70.18
2024-03-11T07:17:49.912Z,69.18
2024-03-11T07:18:48.306Z,70.25
2024-03-11T07:19:48.174Z,70.11
2024-03-11T07:20:48.715Z,69.18
2024-03-11T07:21:48.504Z,68.86
2024-03-11T07:22:48.217Z,68.56
2024-03-11T07:23:48.194Z,68.21
2024-03-11T07:24:48.711Z,67.91
2024-03-11T07:25:48.213Z,68.42
2024-03-11T07:26:48.502Z,65.52
2024-03-11T07:27:48.236Z,65.39
2024-03-11T07:28:48.244Z,67.78
2024-03-11T07:29:48.244Z,65.85
2024-03-11T07:30:48.713Z,66.19
2024-03-11T07:31:48.268Z,70.25
2024-03-11T07:32:48.512Z,66.50
2024-03-11T07:33:48.261Z,65.47
2024-03-11T07:34:48.267Z,64.62
2024-03-11T07:35:48.256Z,63.34
2024-03-11T07:36:48.503Z,66.69
2024-03-11T07:37:48.348Z,66.38
2024-03-11T07:38:48.246Z,64.37
2024-03-11T07:39:48.357Z,64.96
2024-03-11T07:40:48.317Z,61.71
2024-03-11T07:41:48.494Z,62.07
2024-03-11T07:42:48.286Z,61.22
2024-03-11T07:43:48.293Z,62.40
2024-03-11T07:44:48.382Z,62.37
2024-03-11T07:45:48.499Z,62.63
2024-03-11T07:46:48.495Z,64.42
2024-03-11T07:47:48.559Z,61.98
2024-03-11T07:48:48.629Z,64.66
2024-03-11T07:49:48.663Z,63.42
2024-03-11T07:50:49.800Z,62.91
2024-03-11T07:51:49.076Z,63.17
2024-03-11T07:52:48.999Z,64.39
2024-03-11T07:53:48.920Z,62.96
2024-03-11T07:54:49.022Z,64.14
2024-03-11T07:55:49.053Z,60.85
2024-03-11T07:56:49.514Z,62.88
2024-03-11T07:57:49.147Z,62.70
2024-03-11T07:58:49.223Z,62.70
2024-03-11T07:59:49.301Z,62.20
2024-03-11T08:00:49.391Z,62.06
2024-03-11T08:01:50.408Z,62.48
2024-03-11T08:02:49.499Z,61.20
2024-03-11T08:03:49.544Z,60.88
2024-03-11T08:04:51.480Z,60.76
2024-03-11T08:05:49.578Z,65.22
2024-03-11T08:06:50.035Z,62.37
2024-03-11T08:07:49.586Z,65.86
2024-03-11T08:08:49.582Z,61.61
2024-03-11T08:09:49.585Z,64.22
2024-03-11T08:10:49.591Z,64.40
2024-03-11T08:11:50.079Z,65.06
2024-03-11T08:12:49.607Z,66.72
2024-03-11T08:13:49.589Z,65.04
2024-03-11T08:14:49.595Z,65.36
2024-03-11T08:15:49.596Z,64.03
2024-03-11T08:16:50.056Z,63.26
2024-03-11T08:17:49.636Z,65.11
2024-03-11T08:18:50.012Z,63.21
2024-03-11T08:19:49.606Z,63.00
2024-03-11T08:20:49.685Z,63.12
2024-03-11T08:21:49.644Z,62.65
2024-03-11T08:22:49.783Z,64.30
2024-03-11T08:23:49.650Z,62.87
2024-03-11T08:24:49.646Z,63.34
2024-03-11T08:25:49.721Z,61.24
2024-03-11T08:26:50.019Z,59.60
2024-03-11T08:27:49.818Z,57.58
2024-03-11T08:28:49.900Z,60.66
2024-03-11T08:29:49.955Z,59.17
2024-03-11T08:30:50.021Z,60.37
2024-03-11T08:31:50.093Z,59.07
2024-03-11T08:32:50.234Z,60.61
2024-03-11T08:33:50.257Z,61.04
2024-03-11T08:34:50.314Z,62.06
2024-03-11T08:35:50.375Z,59.63
2024-03-11T08:36:50.543Z,60.02
2024-03-11T08:37:50.492Z,59.87
2024-03-11T08:38:51.630Z,59.06
2024-03-11T08:39:50.642Z,58.90
2024-03-11T08:40:50.732Z,58.74
2024-03-11T08:41:50.760Z,59.32
2024-03-11T08:42:50.830Z,58.60
2024-03-11T08:43:50.880Z,57.46
2024-03-11T08:44:51.007Z,59.42
2024-03-11T08:45:51.042Z,59.61
2024-03-11T08:46:51.594Z,58.95
2024-03-11T08:47:51.220Z,54.86
2024-03-11T08:48:51.224Z,52.22
2024-03-11T08:49:51.239Z,55.93
2024-03-11T08:50:51.307Z,53.55
2024-03-11T08:51:51.334Z,54.18
2024-03-11T08:52:51.736Z,55.03
2024-03-11T08:53:51.529Z,52.67
2024-03-11T08:54:51.550Z,52.01
2024-03-11T08:55:51.614Z,52.04
2024-03-11T08:56:52.036Z,53.90
2024-03-11T08:57:53.021Z,50.18
2024-03-11T08:58:55.064Z,51.63
2024-03-11T08:59:52.821Z,50.55
2024-03-11T09:00:51.839Z,50.35
2024-03-11T09:01:51.784Z,47.89
2024-03-11T09:02:51.812Z,46.07
2024-03-11T09:03:51.852Z,47.60
2024-03-11T09:04:51.829Z,51.29
2024-03-11T09:05:51.801Z,52.82
2024-03-11T09:06:52.141Z,53.68
2024-03-11T09:07:52.948Z,50.61
2024-03-11T09:08:53.809Z,50.41
2024-03-11T09:09:52.093Z,50.02
2024-03-11T09:10:52.052Z,50.91
2024-03-11T09:11:52.063Z,49.97
2024-03-11T09:12:52.053Z,50.77
2024-03-11T09:13:52.035Z,52.13
2024-03-11T09:14:52.024Z,50.17
2024-03-11T09:15:52.096Z,50.00
2024-03-11T09:16:52.024Z,53.59
2024-03-11T09:17:53.000Z,54.54
2024-03-11T09:18:52.034Z,50.52
2024-03-11T09:19:52.073Z,54.15
2024-03-11T09:20:52.108Z,53.28
2024-03-11T09:21:52.180Z,50.96
2024-03-11T09:22:52.294Z,52.00
2024-03-11T09:23:52.174Z,51.60
2024-03-11T09:24:52.305Z,50.61
2024-03-11T09:25:52.241Z,50.84
2024-03-11T09:26:52.617Z,51.94
2024-03-11T09:27:52.489Z,53.78
2024-03-11T09:28:55.730Z,52.00
2024-03-11T09:29:52.497Z,49.58
2024-03-11T09:30:52.603Z,47.59
2024-03-11T09:31:52.507Z,44.42
2024-03-11T09:32:52.647Z,43.91
2024-03-11T09:33:52.583Z,44.93
2024-03-11T09:34:52.520Z,51.56
2024-03-11T09:35:52.487Z,52.47
2024-03-11T09:36:52.603Z,50.77
2024-03-11T09:37:52.575Z,51.26
2024-03-11T09:38:52.530Z,51.40
2024-03-11T09:39:52.621Z,50.52
2024-03-11T09:40:52.557Z,56.42
2024-03-11T09:41:52.545Z,52.60
2024-03-11T09:42:52.832Z,54.91
2024-03-11T09:43:52.544Z,52.68
2024-03-11T09:44:52.539Z,51.32
2024-03-11T09:45:52.619Z,51.27
2024-03-11T09:46:52.664Z,50.55
2024-03-11T09:47:52.574Z,51.17
2024-03-11T09:48:52.678Z,53.06
2024-03-11T09:49:52.548Z,51.96
2024-03-11T09:50:52.563Z,53.57
2024-03-11T09:51:52.588Z,53.40
2024-03-11T09:52:52.556Z,51.44
2024-03-11T09:53:52.549Z,52.55
2024-03-11T09:54:52.576Z,53.99
2024-03-11T09:55:52.566Z,54.22
2024-03-11T09:56:52.683Z,52.60
2024-03-11T09:57:52.822Z,56.14
2024-03-11T09:58:52.889Z,56.93
2024-03-11T09:59:52.966Z,51.68
2024-03-11T10:00:53.686Z,51.46
2024-03-11T10:01:53.096Z,56.59
2024-03-11T10:02:53.148Z,59.40
2024-03-11T10:03:53.170Z,55.92
2024-03-11T10:04:53.130Z,61.93
2024-03-11T10:05:53.178Z,61.95
2024-03-11T10:06:53.230Z,63.18
2024-03-11T10:07:53.560Z,59.91
2024-03-11T10:08:53.323Z,61.30
2024-03-11T10:09:53.499Z,55.37
2024-03-11T10:10:53.558Z,57.41
2024-03-11T10:11:54.072Z,61.84
2024-03-11T10:12:53.797Z,58.61
2024-03-11T10:13:53.817Z,59.42
2024-03-11T10:14:53.938Z,60.30
2024-03-11T10:15:54.058Z,53.65
2024-03-11T10:16:54.929Z,55.80
2024-03-11T10:17:54.161Z,56.26
2024-03-11T10:19:02.650Z,56.37
2024-03-11T10:19:55.361Z,56.46
2024-03-11T10:20:54.164Z,56.44
2024-03-11T10:21:54.246Z,56.63
2024-03-11T10:22:54.175Z,56.66
2024-03-11T10:23:54.631Z,56.94
2024-03-11T10:24:54.278Z,56.99
2024-03-11T10:25:54.379Z,54.66
2024-03-11T10:26:54.462Z,54.84
2024-03-11T10:27:54.580Z,56.05
2024-03-11T10:28:55.127Z,55.75
2024-03-11T10:29:55.069Z,59.31
2024-03-11T10:30:56.202Z,57.90
2024-03-11T10:31:55.070Z,55.17
2024-03-11T10:33:03.188Z,57.42
2024-03-11T10:33:54.894Z,56.24
2024-03-11T10:34:54.841Z,57.53
2024-03-11T10:35:54.854Z,56.97
2024-03-11T10:36:55.192Z,57.61
2024-03-11T10:37:58.144Z,54.54
2024-03-11T10:38:54.849Z,55.27
2024-03-11T10:39:54.952Z,55.53
2024-03-11T10:40:54.838Z,55.62
2024-03-11T10:41:54.854Z,55.01
2024-03-11T10:42:55.609Z,55.61
2024-03-11T10:43:54.854Z,57.77
2024-03-11T10:44:54.858Z,53.63
2024-03-11T10:45:54.899Z,53.95
2024-03-11T10:46:54.934Z,54.24
2024-03-11T10:47:55.089Z,55.18
2024-03-11T10:48:54.926Z,57.55
2024-03-11T10:49:55.239Z,57.65
2024-03-11T10:50:54.904Z,57.85
2024-03-11T10:51:54.987Z,57.26
2024-03-11T10:52:54.890Z,56.77
2024-03-11T10:53:54.863Z,55.55
2024-03-11T10:55:07.065Z,55.23
2024-03-11T10:55:54.961Z,55.33
2024-03-11T10:56:55.393Z,56.05
2024-03-11T10:57:55.261Z,55.75
2024-03-11T10:58:54.942Z,55.47
2024-03-11T10:59:55.078Z,56.48
2024-03-11T11:00:54.941Z,56.82
2024-03-11T11:01:54.989Z,57.52
2024-03-11T11:02:55.148Z,60.20
2024-03-11T11:03:54.944Z,57.93
2024-03-11T11:04:54.900Z,55.09
2024-03-11T11:05:54.898Z,55.11
2024-03-11T11:06:54.973Z,56.09
2024-03-11T11:07:57.795Z,53.17
2024-03-11T11:08:54.923Z,53.30
2024-03-11T11:09:55.132Z,53.56
2024-03-11T11:10:55.585Z,52.66
2024-03-11T11:11:55.190Z,49.60
2024-03-11T11:12:55.272Z,50.21
2024-03-11T11:13:55.470Z,50.00
2024-03-11T11:14:55.056Z,51.69
2024-03-11T11:15:55.223Z,52.50
2024-03-11T11:16:55.129Z,54.20
2024-03-11T11:17:55.141Z,53.41
2024-03-11T11:18:55.281Z,55.24
2024-03-11T11:19:55.273Z,51.66
2024-03-11T11:20:55.381Z,53.45
2024-03-11T11:21:55.662Z,56.14
2024-03-11T11:22:55.582Z,54.51
2024-03-11T11:23:55.674Z,54.80
2024-03-11T11:24:55.815Z,53.28
2024-03-11T11:25:55.842Z,51.34
2024-03-11T11:26:55.934Z,52.99
2024-03-11T11:27:56.121Z,52.31
2024-03-11T11:28:56.141Z,54.93
2024-03-11T11:29:56.239Z,54.34
2024-03-11T11:30:56.393Z,55.25
2024-03-11T11:31:56.415Z,53.21
2024-03-11T11:32:56.908Z,52.73
2024-03-11T11:33:57.134Z,50.28
2024-03-11T11:34:59.869Z,51.58
2024-03-11T11:35:56.641Z,51.63
2024-03-11T11:36:57.755Z,51.68
2024-03-11T11:37:57.096Z,52.22
2024-03-11T11:38:56.678Z,52.18
2024-03-11T11:39:57.167Z,47.78
2024-03-11T11:40:56.652Z,50.00
2024-03-11T11:41:56.716Z,50.81
2024-03-11T11:42:56.677Z,50.76
2024-03-11T11:43:57.100Z,55.41
2024-03-11T11:44:56.641Z,57.06
2024-03-11T11:45:57.329Z,54.87
2024-03-11T11:46:56.654Z,52.76
2024-03-11T11:47:56.684Z,53.74
2024-03-11T11:48:56.897Z,52.91
2024-03-11T11:49:56.670Z,51.61
2024-03-11T11:50:56.747Z,52.41
2024-03-11T11:51:56.812Z,53.85
2024-03-11T11:53:02.244Z,54.38
2024-03-11T11:54:07.375Z,54.43
2024-03-11T11:54:57.078Z,54.49
2024-03-11T11:55:56.930Z,54.81
2024-03-11T11:56:56.918Z,55.32
2024-03-11T11:57:56.953Z,56.25
2024-03-11T11:58:56.942Z,56.21
2024-03-11T11:59:57.154Z,55.63
2024-03-11T12:00:56.941Z,54.76
2024-03-11T12:01:57.134Z,57.37
2024-03-11T12:03:00.815Z,53.78
2024-03-11T12:03:57.208Z,53.90
2024-03-11T12:04:57.035Z,53.79
2024-03-11T12:05:56.923Z,53.79
2024-03-11T12:06:57.049Z,53.76
2024-03-11T12:07:56.978Z,51.32
2024-03-11T12:08:59.770Z,54.83
2024-03-11T12:09:57.008Z,53.80
2024-03-11T12:10:56.943Z,54.06
2024-03-11T12:11:56.956Z,53.79
2024-03-11T12:12:57.005Z,51.90
2024-03-11T12:13:56.963Z,50.69
2024-03-11T12:14:57.625Z,52.90
2024-03-11T12:15:57.042Z,51.11
2024-03-11T12:16:56.998Z,54.97
2024-03-11T12:17:57.121Z,52.88
2024-03-11T12:18:57.134Z,53.14
2024-03-11T12:19:57.005Z,52.89
2024-03-11T12:21:00.352Z,56.35
2024-03-11T12:21:57.085Z,56.53
2024-03-11T12:22:57.065Z,56.69
2024-03-11T12:23:57.045Z,57.42
2024-03-11T12:24:57.030Z,59.05
2024-03-11T12:25:57.040Z,56.60
2024-03-11T12:26:57.051Z,55.92
2024-03-11T12:28:03.260Z,55.29
2024-03-11T12:28:57.045Z,55.56
2024-03-11T12:29:57.453Z,56.62
2024-03-11T12:30:57.177Z,58.55
2024-03-11T12:31:57.088Z,61.72
2024-03-11T12:32:57.142Z,63.68
2024-03-11T12:33:57.120Z,72.07
2024-03-11T12:34:57.109Z,71.90
2024-03-11T12:35:57.098Z,73.23
2024-03-11T12:36:57.176Z,68.72
2024-03-11T12:37:57.118Z,73.38
2024-03-11T12:38:57.189Z,76.54
2024-03-11T12:39:57.227Z,74.67
2024-03-11T12:40:57.144Z,74.11
2024-03-11T12:41:57.124Z,71.33
2024-03-11T12:43:00.646Z,69.04
2024-03-11T12:43:57.135Z,69.10
2024-03-11T12:44:57.132Z,66.54
2024-03-11T12:45:57.385Z,63.14
2024-03-11T12:46:57.687Z,63.15
2024-03-11T12:47:57.182Z,58.41
2024-03-11T12:48:57.630Z,57.32
2024-03-11T12:49:57.135Z,57.96
2024-03-11T12:50:57.482Z,57.75
2024-03-11T12:51:57.176Z,55.47
2024-03-11T12:52:57.178Z,53.95
2024-03-11T12:53:57.150Z,54.95
2024-03-11T12:55:00.204Z,54.03
2024-03-11T12:55:57.292Z,54.08
2024-03-11T12:56:57.153Z,51.74
2024-03-11T12:57:57.197Z,49.19
2024-03-11T12:58:57.184Z,47.90
2024-03-11T12:59:58.228Z,48.92
2024-03-11T13:00:57.193Z,53.07
2024-03-11T13:01:57.239Z,50.00
2024-03-11T13:02:57.637Z,53.07
2024-03-11T13:03:57.752Z,50.00
2024-03-11T13:04:57.187Z,50.41
2024-03-11T13:05:57.196Z,50.97
2024-03-11T13:06:57.720Z,50.78
2024-03-11T13:07:57.187Z,53.17
2024-03-11T13:08:57.200Z,51.97
2024-03-11T13:09:57.297Z,53.89
2024-03-11T13:10:57.325Z,54.98
2024-03-11T13:11:57.230Z,52.59
2024-03-11T13:12:57.312Z,53.62
2024-03-11T13:13:57.283Z,52.05
2024-03-11T13:14:57.369Z,51.85
2024-03-11T13:15:57.552Z,52.20
2024-03-11T13:16:57.573Z,52.99
2024-03-11T13:17:57.753Z,52.92
2024-03-11T13:19:00.269Z,51.78
2024-03-11T13:19:57.859Z,51.83
2024-03-11T13:20:57.815Z,52.25
2024-03-11T13:21:57.863Z,52.43
2024-03-11T13:22:58.127Z,52.09
2024-03-11T13:23:57.758Z,51.54
2024-03-11T13:24:58.147Z,52.91
2024-03-11T13:25:57.766Z,54.84
2024-03-11T13:27:29.695Z,52.94
2024-03-11T13:27:57.823Z,52.98
2024-03-11T13:28:57.791Z,53.35
2024-03-11T13:30:01.025Z,53.73
2024-03-11T13:31:02.445Z,53.11
2024-03-11T13:31:57.985Z,53.11
2024-03-11T13:32:58.059Z,53.58
2024-03-11T13:33:57.999Z,53.86
2024-03-11T13:34:57.959Z,53.88
2024-03-11T13:36:00.775Z,53.86
2024-03-11T13:36:58.198Z,53.10
2024-03-11T13:37:57.991Z,53.09
2024-03-11T13:38:58.135Z,53.73
2024-03-11T13:39:58.631Z,53.05
2024-03-11T13:40:58.030Z,54.50
2024-03-11T13:42:00.334Z,50.82